sensor_id;sensor_type;location;lat;lon;timestamp;P1;durP1;ratioP1;P2;durP2;ratioP2
417;SDS011;49;48.530;9.200;2023-12-20T00:01:06;7.23;;;3.73;;
417;SDS011;49;48.530;9.200;2023-12-20T00:03:33;6.47;;;4.30;;
417;SDS011;49;48.530;9.200;2023-12-20T00:06:00;5.00;;;3.63;;
417;SDS011;49;48.530;9.200;2023-12-20T00:08:28;5.97;;;4.00;;
417;SDS011;49;48.530;9.200;2023-12-20T00:10:58;5.50;;;3.80;;
417;SDS011;49;48.530;9.200;2023-12-20T00:13:25;4.70;;;3.30;;
417;SDS011;49;48.530;9.200;2023-12-20T00:15:52;5.60;;;4.20;;
417;SDS011;49;48.530;9.200;2023-12-20T00:18:19;5.30;;;3.60;;
417;SDS011;49;48.530;9.200;2023-12-20T00:20:46;6.00;;;3.97;;
417;SDS011;49;48.530;9.200;2023-12-20T00:23:13;7.60;;;3.53;;
417;SDS011;49;48.530;9.200;2023-12-20T00:25:40;3.83;;;3.30;;
417;SDS011;49;48.530;9.200;2023-12-20T00:28:09;4.03;;;3.10;;
417;SDS011;49;48.530;9.200;2023-12-20T00:30:36;5.80;;;3.40;;
417;SDS011;49;48.530;9.200;2023-12-20T00:33:06;5.03;;;3.40;;
417;SDS011;49;48.530;9.200;2023-12-20T00:35:33;5.33;;;3.50;;
417;SDS011;49;48.530;9.200;2023-12-20T00:38:00;3.63;;;3.17;;
417;SDS011;49;48.530;9.200;2023-12-20T00:40:27;5.00;;;3.67;;
417;SDS011;49;48.530;9.200;2023-12-20T00:42:56;4.80;;;3.20;;
417;SDS011;49;48.530;9.200;2023-12-20T00:45:24;4.43;;;3.33;;
417;SDS011;49;48.530;9.200;2023-12-20T00:47:51;3.50;;;2.80;;
417;SDS011;49;48.530;9.200;2023-12-20T00:50:18;15.07;;;3.20;;
417;SDS011;49;48.530;9.200;2023-12-20T00:52:46;6.20;;;2.97;;
417;SDS011;49;48.530;9.200;2023-12-20T00:55:13;2.97;;;2.57;;
417;SDS011;49;48.530;9.200;2023-12-20T00:57:40;3.33;;;2.77;;
417;SDS011;49;48.530;9.200;2023-12-20T01:00:08;3.80;;;2.97;;
417;SDS011;49;48.530;9.200;2023-12-20T01:02:37;3.47;;;2.73;;
417;SDS011;49;48.530;9.200;2023-12-20T01:05:04;4.87;;;2.73;;
417;SDS011;49;48.530;9.200;2023-12-20T01:07:34;6.00;;;2.63;;
417;SDS011;49;48.530;9.200;2023-12-20T01:10:01;3.93;;;2.73;;
417;SDS011;49;48.530;9.200;2023-12-20T01:12:28;8.13;;;4.20;;
417;SDS011;49;48.530;9.200;2023-12-20T01:14:55;4.07;;;2.70;;
417;SDS011;49;48.530;9.200;2023-12-20T01:17:23;3.53;;;2.50;;
417;SDS011;49;48.530;9.200;2023-12-20T01:19:54;3.50;;;2.60;;
417;SDS011;49;48.530;9.200;2023-12-20T01:22:21;5.50;;;2.80;;
417;SDS011;49;48.530;9.200;2023-12-20T01:24:48;2.77;;;2.60;;
417;SDS011;49;48.530;9.200;2023-12-20T01:27:15;7.30;;;2.93;;
417;SDS011;49;48.530;9.200;2023-12-20T01:29:42;2.60;;;2.50;;
417;SDS011;49;48.530;9.200;2023-12-20T01:32:11;4.47;;;2.80;;
417;SDS011;49;48.530;9.200;2023-12-20T01:34:38;2.97;;;2.50;;
417;SDS011;49;48.530;9.200;2023-12-20T01:37:08;3.60;;;2.87;;
417;SDS011;49;48.530;9.200;2023-12-20T01:39:35;3.90;;;2.90;;
417;SDS011;49;48.530;9.200;2023-12-20T01:42:02;6.30;;;2.80;;
417;SDS011;49;48.530;9.200;2023-12-20T01:44:33;5.03;;;2.70;;
417;SDS011;49;48.530;9.200;2023-12-20T01:47:00;4.20;;;3.03;;
417;SDS011;49;48.530;9.200;2023-12-20T01:49:28;4.73;;;3.20;;
417;SDS011;49;48.530;9.200;2023-12-20T01:51:55;5.30;;;2.73;;
417;SDS011;49;48.530;9.200;2023-12-20T01:54:24;3.17;;;2.80;;
417;SDS011;49;48.530;9.200;2023-12-20T01:56:52;6.00;;;2.80;;
417;SDS011;49;48.530;9.200;2023-12-20T01:59:19;3.40;;;2.73;;
417;SDS011;49;48.530;9.200;2023-12-20T02:01:47;3.87;;;3.10;;
417;SDS011;49;48.530;9.200;2023-12-20T02:04:14;4.93;;;2.93;;
417;SDS011;49;48.530;9.200;2023-12-20T02:06:45;3.80;;;2.87;;
417;SDS011;49;48.530;9.200;2023-12-20T02:09:13;3.93;;;2.73;;
417;SDS011;49;48.530;9.200;2023-12-20T02:11:44;5.87;;;3.60;;
417;SDS011;49;48.530;9.200;2023-12-20T02:14:11;4.60;;;3.10;;
417;SDS011;49;48.530;9.200;2023-12-20T02:16:38;4.70;;;2.70;;
417;SDS011;49;48.530;9.200;2023-12-20T02:19:06;3.10;;;2.60;;
417;SDS011;49;48.530;9.200;2023-12-20T02:21:40;3.13;;;2.30;;
417;SDS011;49;48.530;9.200;2023-12-20T02:24:07;3.63;;;2.87;;
417;SDS011;49;48.530;9.200;2023-12-20T02:26:34;3.40;;;2.53;;
417;SDS011;49;48.530;9.200;2023-12-20T02:29:01;3.00;;;2.40;;
417;SDS011;49;48.530;9.200;2023-12-20T02:31:30;3.13;;;2.63;;
417;SDS011;49;48.530;9.200;2023-12-20T02:33:58;5.77;;;2.80;;
417;SDS011;49;48.530;9.200;2023-12-20T02:36:25;3.00;;;2.40;;
417;SDS011;49;48.530;9.200;2023-12-20T02:38:53;4.57;;;2.70;;
417;SDS011;49;48.530;9.200;2023-12-20T02:41:20;3.30;;;2.53;;
417;SDS011;49;48.530;9.200;2023-12-20T02:43:49;3.17;;;2.50;;
417;SDS011;49;48.530;9.200;2023-12-20T02:46:16;4.00;;;2.50;;
417;SDS011;49;48.530;9.200;2023-12-20T02:48:43;3.40;;;2.70;;
417;SDS011;49;48.530;9.200;2023-12-20T02:51:12;2.87;;;2.30;;
417;SDS011;49;48.530;9.200;2023-12-20T02:53:39;3.50;;;2.60;;
417;SDS011;49;48.530;9.200;2023-12-20T02:56:07;3.27;;;2.63;;
417;SDS011;49;48.530;9.200;2023-12-20T02:58:36;3.33;;;2.57;;
417;SDS011;49;48.530;9.200;2023-12-20T03:01:03;2.80;;;2.50;;
417;SDS011;49;48.530;9.200;2023-12-20T03:03:31;2.80;;;2.40;;
417;SDS011;49;48.530;9.200;2023-12-20T03:05:58;3.87;;;2.50;;
417;SDS011;49;48.530;9.200;2023-12-20T03:08:26;2.90;;;2.40;;
417;SDS011;49;48.530;9.200;2023-12-20T03:10:53;4.17;;;2.77;;
417;SDS011;49;48.530;9.200;2023-12-20T03:13:21;2.57;;;2.30;;
417;SDS011;49;48.530;9.200;2023-12-20T03:15:48;3.77;;;2.47;;
417;SDS011;49;48.530;9.200;2023-12-20T03:18:15;3.53;;;2.50;;
417;SDS011;49;48.530;9.200;2023-12-20T03:20:43;9.93;;;2.53;;
417;SDS011;49;48.530;9.200;2023-12-20T03:23:10;3.90;;;2.73;;
417;SDS011;49;48.530;9.200;2023-12-20T03:25:37;3.73;;;2.40;;
417;SDS011;49;48.530;9.200;2023-12-20T03:28:04;4.43;;;2.50;;
417;SDS011;49;48.530;9.200;2023-12-20T03:30:33;3.63;;;2.30;;
417;SDS011;49;48.530;9.200;2023-12-20T03:33:00;6.07;;;2.50;;
417;SDS011;49;48.530;9.200;2023-12-20T03:35:27;3.27;;;2.60;;
417;SDS011;49;48.530;9.200;2023-12-20T03:37:54;4.60;;;2.33;;
417;SDS011;49;48.530;9.200;2023-12-20T03:40:22;3.40;;;2.50;;
417;SDS011;49;48.530;9.200;2023-12-20T03:42:49;4.73;;;2.53;;
417;SDS011;49;48.530;9.200;2023-12-20T03:45:15;3.63;;;2.57;;
417;SDS011;49;48.530;9.200;2023-12-20T03:47:44;6.87;;;2.90;;
417;SDS011;49;48.530;9.200;2023-12-20T03:50:11;3.30;;;2.43;;
417;SDS011;49;48.530;9.200;2023-12-20T03:52:37;3.10;;;2.70;;
417;SDS011;49;48.530;9.200;2023-12-20T03:55:05;4.13;;;2.40;;
417;SDS011;49;48.530;9.200;2023-12-20T03:57:32;2.83;;;2.63;;
417;SDS011;49;48.530;9.200;2023-12-20T03:59:59;3.83;;;2.40;;
417;SDS011;49;48.530;9.200;2023-12-20T04:02:26;3.00;;;2.50;;
417;SDS011;49;48.530;9.200;2023-12-20T04:04:54;2.80;;;2.23;;
417;SDS011;49;48.530;9.200;2023-12-20T04:07:21;3.30;;;2.43;;
417;SDS011;49;48.530;9.200;2023-12-20T04:09:50;3.10;;;2.53;;
417;SDS011;49;48.530;9.200;2023-12-20T04:12:17;3.13;;;2.43;;
417;SDS011;49;48.530;9.200;2023-12-20T04:14:46;3.60;;;2.43;;
417;SDS011;49;48.530;9.200;2023-12-20T04:17:13;2.73;;;2.40;;
417;SDS011;49;48.530;9.200;2023-12-20T04:19:42;14.93;;;2.33;;
417;SDS011;49;48.530;9.200;2023-12-20T04:22:10;4.00;;;2.30;;
417;SDS011;49;48.530;9.200;2023-12-20T04:24:37;3.27;;;2.50;;
417;SDS011;49;48.530;9.200;2023-12-20T04:27:04;3.30;;;2.67;;
417;SDS011;49;48.530;9.200;2023-12-20T04:29:31;2.50;;;2.10;;
417;SDS011;49;48.530;9.200;2023-12-20T04:31:58;4.17;;;2.50;;
417;SDS011;49;48.530;9.200;2023-12-20T04:34:25;2.30;;;2.00;;
417;SDS011;49;48.530;9.200;2023-12-20T04:36:52;4.30;;;2.10;;
417;SDS011;49;48.530;9.200;2023-12-20T04:39:20;2.67;;;2.27;;
417;SDS011;49;48.530;9.200;2023-12-20T04:41:47;3.27;;;2.33;;
417;SDS011;49;48.530;9.200;2023-12-20T04:44:15;4.23;;;2.37;;
417;SDS011;49;48.530;9.200;2023-12-20T04:46:42;3.30;;;2.37;;
417;SDS011;49;48.530;9.200;2023-12-20T04:49:09;4.47;;;2.80;;
417;SDS011;49;48.530;9.200;2023-12-20T04:51:36;6.60;;;2.50;;
417;SDS011;49;48.530;9.200;2023-12-20T04:54:03;6.80;;;2.53;;
417;SDS011;49;48.530;9.200;2023-12-20T04:56:31;4.30;;;2.50;;
417;SDS011;49;48.530;9.200;2023-12-20T04:58:58;3.10;;;2.50;;
417;SDS011;49;48.530;9.200;2023-12-20T05:01:25;3.00;;;2.10;;
417;SDS011;49;48.530;9.200;2023-12-20T05:03:52;4.90;;;2.20;;
417;SDS011;49;48.530;9.200;2023-12-20T05:06:19;3.50;;;2.30;;
417;SDS011;49;48.530;9.200;2023-12-20T05:08:46;3.33;;;2.30;;
417;SDS011;49;48.530;9.200;2023-12-20T05:11:12;2.60;;;2.27;;
417;SDS011;49;48.530;9.200;2023-12-20T05:13:42;6.37;;;2.20;;
417;SDS011;49;48.530;9.200;2023-12-20T05:16:09;5.00;;;2.40;;
417;SDS011;49;48.530;9.200;2023-12-20T05:18:36;3.13;;;2.10;;
417;SDS011;49;48.530;9.200;2023-12-20T05:21:03;2.20;;;1.90;;
417;SDS011;49;48.530;9.200;2023-12-20T05:23:30;2.40;;;2.00;;
417;SDS011;49;48.530;9.200;2023-12-20T05:25:57;5.00;;;1.80;;
417;SDS011;49;48.530;9.200;2023-12-20T05:28:24;2.50;;;2.00;;
417;SDS011;49;48.530;9.200;2023-12-20T05:30:52;2.43;;;2.07;;
417;SDS011;49;48.530;9.200;2023-12-20T05:33:20;2.63;;;2.17;;
417;SDS011;49;48.530;9.200;2023-12-20T05:35:47;3.93;;;2.60;;
417;SDS011;49;48.530;9.200;2023-12-20T05:38:13;3.33;;;2.23;;
417;SDS011;49;48.530;9.200;2023-12-20T05:40:40;2.80;;;2.23;;
417;SDS011;49;48.530;9.200;2023-12-20T05:43:07;3.03;;;2.40;;
417;SDS011;49;48.530;9.200;2023-12-20T05:45:34;2.50;;;2.00;;
417;SDS011;49;48.530;9.200;2023-12-20T05:48:02;3.77;;;2.30;;
417;SDS011;49;48.530;9.200;2023-12-20T05:50:30;2.60;;;1.83;;
417;SDS011;49;48.530;9.200;2023-12-20T05:52:56;3.27;;;2.03;;
417;SDS011;49;48.530;9.200;2023-12-20T05:55:23;2.20;;;1.80;;
417;SDS011;49;48.530;9.200;2023-12-20T05:57:50;2.47;;;1.90;;
417;SDS011;49;48.530;9.200;2023-12-20T06:00:17;2.37;;;2.03;;
417;SDS011;49;48.530;9.200;2023-12-20T06:02:44;2.57;;;2.10;;
417;SDS011;49;48.530;9.200;2023-12-20T06:05:13;4.23;;;2.20;;
417;SDS011;49;48.530;9.200;2023-12-20T06:07:40;4.43;;;2.20;;
417;SDS011;49;48.530;9.200;2023-12-20T06:10:07;3.50;;;2.43;;
417;SDS011;49;48.530;9.200;2023-12-20T06:12:34;7.43;;;2.30;;
417;SDS011;49;48.530;9.200;2023-12-20T06:15:01;3.20;;;2.47;;
417;SDS011;49;48.530;9.200;2023-12-20T06:17:29;3.87;;;2.27;;
417;SDS011;49;48.530;9.200;2023-12-20T06:19:56;4.10;;;2.40;;
417;SDS011;49;48.530;9.200;2023-12-20T06:22:24;2.33;;;2.00;;
417;SDS011;49;48.530;9.200;2023-12-20T06:24:51;2.80;;;2.20;;
417;SDS011;49;48.530;9.200;2023-12-20T06:27:18;2.43;;;2.03;;
417;SDS011;49;48.530;9.200;2023-12-20T06:29:45;5.30;;;2.50;;
417;SDS011;49;48.530;9.200;2023-12-20T06:32:12;3.90;;;2.07;;
417;SDS011;49;48.530;9.200;2023-12-20T06:34:38;2.40;;;2.17;;
417;SDS011;49;48.530;9.200;2023-12-20T06:37:05;2.67;;;2.10;;
417;SDS011;49;48.530;9.200;2023-12-20T06:39:34;3.67;;;2.30;;
417;SDS011;49;48.530;9.200;2023-12-20T06:42:01;2.87;;;2.37;;
417;SDS011;49;48.530;9.200;2023-12-20T06:44:28;2.90;;;2.20;;
417;SDS011;49;48.530;9.200;2023-12-20T06:46:54;2.73;;;2.17;;
417;SDS011;49;48.530;9.200;2023-12-20T06:49:21;2.73;;;2.20;;
417;SDS011;49;48.530;9.200;2023-12-20T06:51:48;7.50;;;2.63;;
417;SDS011;49;48.530;9.200;2023-12-20T06:54:15;4.80;;;2.33;;
417;SDS011;49;48.530;9.200;2023-12-20T06:56:43;2.63;;;2.27;;
417;SDS011;49;48.530;9.200;2023-12-20T06:59:10;3.00;;;2.40;;
417;SDS011;49;48.530;9.200;2023-12-20T07:01:37;3.13;;;2.40;;
417;SDS011;49;48.530;9.200;2023-12-20T07:04:04;3.73;;;2.43;;
417;SDS011;49;48.530;9.200;2023-12-20T07:06:31;3.50;;;2.50;;
417;SDS011;49;48.530;9.200;2023-12-20T07:08:57;3.80;;;2.40;;
417;SDS011;49;48.530;9.200;2023-12-20T07:11:24;3.80;;;2.60;;
417;SDS011;49;48.530;9.200;2023-12-20T07:13:52;6.23;;;2.63;;
417;SDS011;49;48.530;9.200;2023-12-20T07:16:19;4.70;;;2.50;;
417;SDS011;49;48.530;9.200;2023-12-20T07:18:46;5.30;;;2.83;;
417;SDS011;49;48.530;9.200;2023-12-20T07:21:13;3.80;;;2.70;;
417;SDS011;49;48.530;9.200;2023-12-20T07:23:40;3.50;;;2.70;;
417;SDS011;49;48.530;9.200;2023-12-20T07:26:07;3.20;;;2.50;;
417;SDS011;49;48.530;9.200;2023-12-20T07:28:34;3.97;;;2.40;;
417;SDS011;49;48.530;9.200;2023-12-20T07:31:02;3.73;;;2.67;;
417;SDS011;49;48.530;9.200;2023-12-20T07:33:29;3.10;;;2.53;;
417;SDS011;49;48.530;9.200;2023-12-20T07:35:56;3.83;;;2.60;;
417;SDS011;49;48.530;9.200;2023-12-20T07:38:23;3.03;;;2.40;;
417;SDS011;49;48.530;9.200;2023-12-20T07:40:50;3.30;;;2.57;;
417;SDS011;49;48.530;9.200;2023-12-20T07:43:17;3.07;;;2.27;;
417;SDS011;49;48.530;9.200;2023-12-20T07:45:44;3.20;;;2.10;;
417;SDS011;49;48.530;9.200;2023-12-20T07:48:12;2.83;;;2.37;;
417;SDS011;49;48.530;9.200;2023-12-20T07:50:39;2.90;;;2.30;;
417;SDS011;49;48.530;9.200;2023-12-20T07:53:07;3.33;;;2.33;;
417;SDS011;49;48.530;9.200;2023-12-20T07:55:34;3.10;;;2.30;;
417;SDS011;49;48.530;9.200;2023-12-20T07:58:00;2.77;;;2.30;;
417;SDS011;49;48.530;9.200;2023-12-20T08:00:27;2.70;;;2.23;;
417;SDS011;49;48.530;9.200;2023-12-20T08:02:54;3.87;;;2.67;;
417;SDS011;49;48.530;9.200;2023-12-20T08:05:22;2.97;;;2.30;;
417;SDS011;49;48.530;9.200;2023-12-20T08:07:49;3.77;;;2.40;;
417;SDS011;49;48.530;9.200;2023-12-20T08:10:16;3.90;;;2.50;;
417;SDS011;49;48.530;9.200;2023-12-20T08:12:44;9.97;;;5.30;;
417;SDS011;49;48.530;9.200;2023-12-20T08:15:11;6.03;;;2.90;;
417;SDS011;49;48.530;9.200;2023-12-20T08:17:37;2.87;;;2.33;;
417;SDS011;49;48.530;9.200;2023-12-20T08:20:05;3.33;;;2.70;;
417;SDS011;49;48.530;9.200;2023-12-20T08:22:34;3.90;;;2.80;;
417;SDS011;49;48.530;9.200;2023-12-20T08:25:01;3.93;;;2.43;;
417;SDS011;49;48.530;9.200;2023-12-20T08:27:27;3.67;;;2.53;;
417;SDS011;49;48.530;9.200;2023-12-20T08:29:56;4.63;;;2.50;;
417;SDS011;49;48.530;9.200;2023-12-20T08:32:24;3.40;;;2.83;;
417;SDS011;49;48.530;9.200;2023-12-20T08:34:51;9.80;;;2.90;;
417;SDS011;49;48.530;9.200;2023-12-20T08:37:18;4.97;;;2.27;;
417;SDS011;49;48.530;9.200;2023-12-20T08:39:46;3.07;;;2.20;;
417;SDS011;49;48.530;9.200;2023-12-20T08:42:13;3.10;;;2.40;;
417;SDS011;49;48.530;9.200;2023-12-20T08:44:40;2.97;;;2.33;;
417;SDS011;49;48.530;9.200;2023-12-20T08:47:07;3.73;;;2.50;;
417;SDS011;49;48.530;9.200;2023-12-20T08:49:38;2.90;;;2.23;;
417;SDS011;49;48.530;9.200;2023-12-20T08:52:05;3.33;;;2.77;;
417;SDS011;49;48.530;9.200;2023-12-20T08:54:32;3.67;;;2.40;;
417;SDS011;49;48.530;9.200;2023-12-20T08:57:00;7.87;;;2.73;;
417;SDS011;49;48.530;9.200;2023-12-20T08:59:27;4.37;;;2.63;;
417;SDS011;49;48.530;9.200;2023-12-20T09:01:54;3.20;;;2.47;;
417;SDS011;49;48.530;9.200;2023-12-20T09:04:21;3.80;;;2.57;;
417;SDS011;49;48.530;9.200;2023-12-20T09:06:48;3.97;;;3.03;;
417;SDS011;49;48.530;9.200;2023-12-20T09:09:14;3.93;;;2.77;;
417;SDS011;49;48.530;9.200;2023-12-20T09:11:41;4.00;;;2.70;;
417;SDS011;49;48.530;9.200;2023-12-20T09:14:12;5.83;;;4.70;;
417;SDS011;49;48.530;9.200;2023-12-20T09:16:39;4.80;;;2.60;;
417;SDS011;49;48.530;9.200;2023-12-20T09:19:06;3.80;;;2.57;;
417;SDS011;49;48.530;9.200;2023-12-20T09:21:33;4.10;;;2.77;;
417;SDS011;49;48.530;9.200;2023-12-20T09:24:00;5.80;;;3.00;;
417;SDS011;49;48.530;9.200;2023-12-20T09:26:28;3.43;;;2.87;;
417;SDS011;49;48.530;9.200;2023-12-20T09:28:55;3.80;;;2.47;;
417;SDS011;49;48.530;9.200;2023-12-20T09:31:23;5.63;;;2.90;;
417;SDS011;49;48.530;9.200;2023-12-20T09:33:50;5.30;;;3.00;;
417;SDS011;49;48.530;9.200;2023-12-20T09:36:17;4.30;;;3.10;;
417;SDS011;49;48.530;9.200;2023-12-20T09:38:44;10.50;;;2.97;;
417;SDS011;49;48.530;9.200;2023-12-20T09:41:11;9.57;;;3.33;;
417;SDS011;49;48.530;9.200;2023-12-20T09:43:38;3.63;;;2.43;;
417;SDS011;49;48.530;9.200;2023-12-20T09:46:06;5.10;;;2.70;;
417;SDS011;49;48.530;9.200;2023-12-20T09:48:34;7.13;;;3.20;;
417;SDS011;49;48.530;9.200;2023-12-20T09:51:03;6.50;;;3.23;;
417;SDS011;49;48.530;9.200;2023-12-20T09:53:30;10.27;;;3.83;;
417;SDS011;49;48.530;9.200;2023-12-20T09:56:00;4.03;;;2.90;;
417;SDS011;49;48.530;9.200;2023-12-20T09:58:28;6.03;;;3.47;;
417;SDS011;49;48.530;9.200;2023-12-20T10:00:55;9.20;;;3.27;;
417;SDS011;49;48.530;9.200;2023-12-20T10:03:23;4.13;;;3.20;;
417;SDS011;49;48.530;9.200;2023-12-20T10:05:54;11.30;;;3.00;;
417;SDS011;49;48.530;9.200;2023-12-20T10:08:23;12.13;;;3.33;;
417;SDS011;49;48.530;9.200;2023-12-20T10:10:51;7.73;;;3.70;;
417;SDS011;49;48.530;9.200;2023-12-20T10:13:18;9.70;;;4.60;;
417;SDS011;49;48.530;9.200;2023-12-20T10:15:45;17.73;;;7.93;;
417;SDS011;49;48.530;9.200;2023-12-20T10:18:12;15.90;;;5.90;;
417;SDS011;49;48.530;9.200;2023-12-20T10:20:40;15.33;;;5.50;;
417;SDS011;49;48.530;9.200;2023-12-20T10:23:10;19.47;;;4.90;;
417;SDS011;49;48.530;9.200;2023-12-20T10:25:38;12.13;;;4.17;;
417;SDS011;49;48.530;9.200;2023-12-20T10:28:10;8.30;;;3.47;;
417;SDS011;49;48.530;9.200;2023-12-20T10:30:38;8.37;;;3.70;;
417;SDS011;49;48.530;9.200;2023-12-20T10:33:06;10.10;;;4.30;;
417;SDS011;49;48.530;9.200;2023-12-20T10:35:33;8.50;;;3.57;;
417;SDS011;49;48.530;9.200;2023-12-20T10:38:02;7.10;;;4.13;;
417;SDS011;49;48.530;9.200;2023-12-20T10:40:31;10.50;;;4.70;;
417;SDS011;49;48.530;9.200;2023-12-20T10:43:02;7.97;;;3.50;;
417;SDS011;49;48.530;9.200;2023-12-20T10:45:30;11.30;;;3.80;;
417;SDS011;49;48.530;9.200;2023-12-20T10:47:57;4.50;;;3.20;;
417;SDS011;49;48.530;9.200;2023-12-20T10:50:26;6.10;;;3.40;;
417;SDS011;49;48.530;9.200;2023-12-20T10:52:54;16.97;;;3.73;;
417;SDS011;49;48.530;9.200;2023-12-20T10:55:21;8.60;;;3.33;;
417;SDS011;49;48.530;9.200;2023-12-20T10:57:50;12.60;;;3.77;;
417;SDS011;49;48.530;9.200;2023-12-20T11:00:18;11.37;;;3.00;;
417;SDS011;49;48.530;9.200;2023-12-20T11:02:45;5.30;;;3.17;;
417;SDS011;49;48.530;9.200;2023-12-20T11:05:14;10.73;;;4.17;;
417;SDS011;49;48.530;9.200;2023-12-20T11:07:50;5.63;;;3.23;;
417;SDS011;49;48.530;9.200;2023-12-20T11:10:19;6.30;;;2.90;;
417;SDS011;49;48.530;9.200;2023-12-20T11:12:51;5.40;;;3.03;;
417;SDS011;49;48.530;9.200;2023-12-20T11:15:20;8.67;;;3.80;;
417;SDS011;49;48.530;9.200;2023-12-20T11:17:54;12.63;;;3.40;;
417;SDS011;49;48.530;9.200;2023-12-20T11:20:22;8.43;;;3.47;;
417;SDS011;49;48.530;9.200;2023-12-20T11:23:01;6.47;;;3.30;;
417;SDS011;49;48.530;9.200;2023-12-20T11:25:28;9.50;;;3.50;;
417;SDS011;49;48.530;9.200;2023-12-20T11:28:09;8.67;;;3.73;;
417;SDS011;49;48.530;9.200;2023-12-20T11:30:46;8.53;;;3.50;;
417;SDS011;49;48.530;9.200;2023-12-20T11:33:14;6.10;;;3.27;;
417;SDS011;49;48.530;9.200;2023-12-20T11:35:41;7.60;;;3.40;;
417;SDS011;49;48.530;9.200;2023-12-20T11:38:08;8.07;;;3.27;;
417;SDS011;49;48.530;9.200;2023-12-20T11:40:36;9.47;;;3.80;;
417;SDS011;49;48.530;9.200;2023-12-20T11:43:03;10.53;;;3.50;;
417;SDS011;49;48.530;9.200;2023-12-20T11:45:32;4.47;;;3.00;;
417;SDS011;49;48.530;9.200;2023-12-20T11:48:01;9.60;;;3.20;;
417;SDS011;49;48.530;9.200;2023-12-20T11:50:28;6.20;;;3.20;;
417;SDS011;49;48.530;9.200;2023-12-20T11:52:56;6.03;;;2.93;;
417;SDS011;49;48.530;9.200;2023-12-20T11:55:23;12.83;;;3.40;;
417;SDS011;49;48.530;9.200;2023-12-20T11:57:50;11.10;;;3.10;;
417;SDS011;49;48.530;9.200;2023-12-20T12:00:18;8.67;;;3.37;;
417;SDS011;49;48.530;9.200;2023-12-20T12:02:56;9.33;;;3.47;;
417;SDS011;49;48.530;9.200;2023-12-20T12:05:23;5.00;;;2.90;;
417;SDS011;49;48.530;9.200;2023-12-20T12:07:50;5.83;;;3.27;;
417;SDS011;49;48.530;9.200;2023-12-20T12:10:18;7.77;;;3.00;;
417;SDS011;49;48.530;9.200;2023-12-20T12:12:45;13.60;;;4.30;;
417;SDS011;49;48.530;9.200;2023-12-20T12:15:13;6.60;;;3.43;;
417;SDS011;49;48.530;9.200;2023-12-20T12:17:41;10.50;;;3.40;;
417;SDS011;49;48.530;9.200;2023-12-20T12:20:09;7.43;;;2.90;;
417;SDS011;49;48.530;9.200;2023-12-20T12:22:37;7.80;;;3.07;;
417;SDS011;49;48.530;9.200;2023-12-20T12:25:11;22.23;;;4.43;;
417;SDS011;49;48.530;9.200;2023-12-20T12:27:43;9.97;;;3.83;;
417;SDS011;49;48.530;9.200;2023-12-20T12:30:10;7.70;;;3.60;;
417;SDS011;49;48.530;9.200;2023-12-20T12:32:38;11.50;;;3.90;;
417;SDS011;49;48.530;9.200;2023-12-20T12:35:06;11.17;;;3.60;;
417;SDS011;49;48.530;9.200;2023-12-20T12:37:36;5.70;;;3.20;;
417;SDS011;49;48.530;9.200;2023-12-20T12:40:05;9.90;;;3.50;;
417;SDS011;49;48.530;9.200;2023-12-20T12:42:33;9.13;;;2.97;;
417;SDS011;49;48.530;9.200;2023-12-20T12:44:59;10.53;;;3.30;;
417;SDS011;49;48.530;9.200;2023-12-20T12:47:26;10.17;;;4.40;;
417;SDS011;49;48.530;9.200;2023-12-20T12:49:53;6.97;;;4.10;;
417;SDS011;49;48.530;9.200;2023-12-20T12:52:19;10.07;;;4.40;;
417;SDS011;49;48.530;9.200;2023-12-20T12:54:47;12.70;;;3.50;;
417;SDS011;49;48.530;9.200;2023-12-20T12:57:15;7.90;;;3.53;;
417;SDS011;49;48.530;9.200;2023-12-20T12:59:42;7.30;;;3.37;;
417;SDS011;49;48.530;9.200;2023-12-20T13:02:11;8.63;;;3.97;;
417;SDS011;49;48.530;9.200;2023-12-20T13:04:50;9.97;;;3.67;;
417;SDS011;49;48.530;9.200;2023-12-20T13:07:18;11.17;;;3.40;;
417;SDS011;49;48.530;9.200;2023-12-20T13:09:45;13.30;;;3.90;;
417;SDS011;49;48.530;9.200;2023-12-20T13:12:14;18.27;;;4.10;;
417;SDS011;49;48.530;9.200;2023-12-20T13:14:41;29.23;;;3.43;;
417;SDS011;49;48.530;9.200;2023-12-20T13:17:07;9.20;;;3.60;;
417;SDS011;49;48.530;9.200;2023-12-20T13:19:34;15.07;;;3.57;;
417;SDS011;49;48.530;9.200;2023-12-20T13:22:01;7.20;;;3.57;;
417;SDS011;49;48.530;9.200;2023-12-20T13:24:28;13.60;;;4.83;;
417;SDS011;49;48.530;9.200;2023-12-20T13:26:57;11.40;;;4.50;;
417;SDS011;49;48.530;9.200;2023-12-20T13:29:24;9.13;;;3.40;;
417;SDS011;49;48.530;9.200;2023-12-20T13:31:52;14.83;;;3.50;;
417;SDS011;49;48.530;9.200;2023-12-20T13:34:19;13.50;;;4.23;;
417;SDS011;49;48.530;9.200;2023-12-20T13:36:46;10.00;;;3.23;;
417;SDS011;49;48.530;9.200;2023-12-20T13:39:15;8.07;;;3.47;;
417;SDS011;49;48.530;9.200;2023-12-20T13:41:43;9.13;;;3.47;;
417;SDS011;49;48.530;9.200;2023-12-20T13:44:11;12.53;;;4.33;;
417;SDS011;49;48.530;9.200;2023-12-20T13:46:38;9.30;;;3.53;;
417;SDS011;49;48.530;9.200;2023-12-20T13:49:07;17.27;;;5.57;;
417;SDS011;49;48.530;9.200;2023-12-20T13:51:34;11.60;;;3.80;;
417;SDS011;49;48.530;9.200;2023-12-20T13:54:01;24.93;;;8.17;;
417;SDS011;49;48.530;9.200;2023-12-20T13:56:28;13.20;;;3.70;;
417;SDS011;49;48.530;9.200;2023-12-20T13:58:55;18.17;;;3.80;;
417;SDS011;49;48.530;9.200;2023-12-20T14:01:24;11.90;;;4.67;;
417;SDS011;49;48.530;9.200;2023-12-20T14:03:51;11.23;;;4.80;;
417;SDS011;49;48.530;9.200;2023-12-20T14:06:18;11.60;;;4.23;;
417;SDS011;49;48.530;9.200;2023-12-20T14:08:45;12.37;;;4.10;;
417;SDS011;49;48.530;9.200;2023-12-20T14:11:13;9.63;;;3.27;;
417;SDS011;49;48.530;9.200;2023-12-20T14:13:40;10.83;;;3.50;;
417;SDS011;49;48.530;9.200;2023-12-20T14:16:08;8.73;;;3.47;;
417;SDS011;49;48.530;9.200;2023-12-20T14:18:37;7.67;;;3.37;;
417;SDS011;49;48.530;9.200;2023-12-20T14:21:05;7.23;;;3.10;;
417;SDS011;49;48.530;9.200;2023-12-20T14:23:32;8.37;;;2.87;;
417;SDS011;49;48.530;9.200;2023-12-20T14:26:01;18.50;;;5.00;;
417;SDS011;49;48.530;9.200;2023-12-20T14:28:28;12.30;;;5.77;;
417;SDS011;49;48.530;9.200;2023-12-20T14:30:56;13.03;;;3.40;;
417;SDS011;49;48.530;9.200;2023-12-20T14:33:22;7.13;;;3.17;;
417;SDS011;49;48.530;9.200;2023-12-20T14:35:52;9.70;;;3.63;;
417;SDS011;49;48.530;9.200;2023-12-20T14:38:19;10.13;;;3.60;;
417;SDS011;49;48.530;9.200;2023-12-20T14:40:46;12.73;;;3.83;;
417;SDS011;49;48.530;9.200;2023-12-20T14:43:14;9.50;;;3.33;;
417;SDS011;49;48.530;9.200;2023-12-20T14:45:42;19.13;;;3.63;;
417;SDS011;49;48.530;9.200;2023-12-20T14:48:10;14.03;;;3.70;;
417;SDS011;49;48.530;9.200;2023-12-20T14:50:37;5.50;;;3.00;;
417;SDS011;49;48.530;9.200;2023-12-20T14:53:07;7.40;;;3.60;;
417;SDS011;49;48.530;9.200;2023-12-20T14:55:35;15.60;;;3.87;;
417;SDS011;49;48.530;9.200;2023-12-20T14:58:02;7.80;;;3.70;;
417;SDS011;49;48.530;9.200;2023-12-20T15:00:30;13.17;;;6.30;;
417;SDS011;49;48.530;9.200;2023-12-20T15:02:57;13.97;;;4.60;;
417;SDS011;49;48.530;9.200;2023-12-20T15:05:40;10.17;;;3.97;;
417;SDS011;49;48.530;9.200;2023-12-20T15:08:09;17.67;;;3.60;;
417;SDS011;49;48.530;9.200;2023-12-20T15:10:36;13.70;;;3.60;;
417;SDS011;49;48.530;9.200;2023-12-20T15:13:03;12.83;;;4.37;;
417;SDS011;49;48.530;9.200;2023-12-20T15:15:31;11.30;;;4.63;;
417;SDS011;49;48.530;9.200;2023-12-20T15:17:58;14.57;;;4.70;;
417;SDS011;49;48.530;9.200;2023-12-20T15:20:25;10.73;;;4.23;;
417;SDS011;49;48.530;9.200;2023-12-20T15:22:52;14.47;;;5.73;;
417;SDS011;49;48.530;9.200;2023-12-20T15:25:21;8.33;;;4.00;;
417;SDS011;49;48.530;9.200;2023-12-20T15:27:48;13.27;;;4.10;;
417;SDS011;49;48.530;9.200;2023-12-20T15:30:18;12.53;;;4.90;;
417;SDS011;49;48.530;9.200;2023-12-20T15:32:44;23.23;;;6.30;;
417;SDS011;49;48.530;9.200;2023-12-20T15:35:13;11.87;;;5.47;;
417;SDS011;49;48.530;9.200;2023-12-20T15:37:41;8.67;;;4.90;;
417;SDS011;49;48.530;9.200;2023-12-20T15:40:08;11.93;;;5.17;;
417;SDS011;49;48.530;9.200;2023-12-20T15:42:37;15.70;;;5.20;;
417;SDS011;49;48.530;9.200;2023-12-20T15:45:05;10.17;;;4.20;;
417;SDS011;49;48.530;9.200;2023-12-20T15:47:33;9.43;;;4.07;;
417;SDS011;49;48.530;9.200;2023-12-20T15:50:01;6.90;;;3.80;;
417;SDS011;49;48.530;9.200;2023-12-20T15:52:29;11.53;;;5.60;;
417;SDS011;49;48.530;9.200;2023-12-20T15:54:56;10.50;;;5.00;;
417;SDS011;49;48.530;9.200;2023-12-20T15:57:22;10.60;;;4.90;;
417;SDS011;49;48.530;9.200;2023-12-20T15:59:51;8.63;;;5.10;;